首页
METAR-TAF:

METAR-TAF

机场 :

Golden Triangle Regional Airport

哥伦布/ West Point / 斯塔克維爾, 密西西比州, 美国

纬度: 33-27N, 经度: 088-35W, 海拔: 80米

当前天气观测

该预报发布于3小时和58分钟前的01:56 UTC
风速7节,风向东南
温度 4°C
湿度 60%
气压 1026 hPa
能見度: 16.1公里
天空无云

METAR: KGTR 120156Z AUTO 14007KT 10SM CLR 04/M03 A3031 RMK AO2 SLP266 T00401030 PWINO $

时间: 23:54 (05:54 UTC)

预报

该预报发布于20分钟前的05:34 UTC
预报有效从12日的 06点(UTC)到 13日的 06点(UTC)
风速4节,风向南转南东
能見度: 10公里
多云层高于25000英尺
从 12日的 2000点(UTC)
风速7节,风向
能見度: 10公里
多云层高于5000英尺

TAF: KGTR 120534Z 1206/1306 16004KT P6SM BKN250 FM122000 18007KT P6SM BKN050

超过4000个机场的气象观测和天气预报(METAR&TAF报告)。

可查询的气象台以黄色和红色小点在地图上表示。

将鼠标移到小点上方,可查看气象台名称。

然后点击查看天气观测和预报。

如需切换地图:点击带黑十字的绿色按钮放大地图;点击带横线的绿色按钮缩小地图;或者点击绿色箭头查看邻近地区的地图。


METAR-TAF: